createdAt,value
2023-05-19T00:03:26.991Z,3.40
2023-05-19T00:08:31.319Z,3.70
2023-05-19T00:13:33.436Z,3.88
2023-05-19T00:18:35.496Z,3.97
2023-05-19T00:23:37.299Z,3.90
2023-05-19T00:28:39.107Z,3.97
2023-05-19T00:33:41.120Z,3.65
2023-05-19T00:38:42.831Z,4.00
2023-05-19T00:43:44.847Z,4.00
2023-05-19T00:48:46.745Z,4.13
2023-05-19T00:53:51.001Z,4.20
2023-05-19T00:58:53.270Z,3.75
2023-05-19T01:03:58.909Z,3.97
2023-05-19T01:09:01.228Z,4.15
2023-05-19T01:14:03.038Z,4.28
2023-05-19T01:19:27.912Z,4.37
2023-05-19T01:24:41.586Z,4.38
2023-05-19T01:29:49.298Z,4.20
2023-05-19T01:34:53.827Z,4.45
2023-05-19T01:39:56.082Z,4.45
2023-05-19T01:44:58.232Z,3.70
2023-05-19T01:50:01.589Z,3.70
2023-05-19T01:55:03.591Z,3.95
2023-05-19T02:00:15.713Z,4.00
2023-05-19T02:05:29.410Z,3.95
2023-05-19T02:10:37.109Z,3.90
2023-05-19T02:15:44.762Z,4.15
2023-05-19T02:20:47.128Z,4.05
2023-05-19T02:25:48.894Z,3.88
2023-05-19T02:30:50.740Z,4.17
2023-05-19T02:35:52.503Z,4.47
2023-05-19T02:40:54.225Z,4.28
2023-05-19T02:45:56.326Z,3.87
2023-05-19T02:50:58.448Z,4.37
2023-05-19T02:56:00.726Z,4.57
2023-05-19T03:01:02.574Z,4.47
2023-05-19T03:06:04.970Z,4.15
2023-05-19T03:11:06.733Z,4.45
2023-05-19T03:16:08.844Z,4.20
2023-05-19T03:21:10.775Z,4.50
2023-05-19T03:26:13.026Z,3.90
2023-05-19T03:31:16.528Z,4.20
2023-05-19T03:41:21.108Z,4.18
2023-05-19T03:46:23.332Z,3.97
2023-05-19T03:51:54.555Z,4.65
2023-05-19T03:57:05.116Z,4.53
2023-05-19T04:02:08.328Z,4.32
2023-05-19T04:07:10.237Z,4.72
2023-05-19T04:12:12.021Z,4.50
2023-05-19T04:17:14.376Z,4.83
2023-05-19T04:22:16.356Z,4.65
2023-05-19T04:27:18.413Z,4.65
2023-05-19T04:32:20.485Z,4.40
2023-05-19T04:37:22.691Z,4.47
2023-05-19T04:42:26.183Z,4.85
2023-05-19T04:47:30.085Z,4.60
2023-05-19T04:52:33.118Z,4.80
2023-05-19T04:57:37.561Z,4.63
2023-05-19T05:07:42.305Z,4.88
2023-05-19T05:12:44.463Z,4.57
2023-05-19T05:17:46.589Z,5.13
2023-05-19T05:22:48.933Z,4.97
2023-05-19T05:32:53.774Z,5.35
2023-05-19T05:38:06.505Z,5.07
2023-05-19T05:43:08.282Z,5.20
2023-05-19T05:48:16.803Z,5.40
2023-05-19T05:53:20.630Z,5.32
2023-05-19T05:58:25.839Z,5.57
2023-05-19T06:03:29.049Z,5.07
2023-05-19T06:08:34.807Z,5.93
2023-05-19T06:13:36.928Z,5.78
2023-05-19T06:18:41.786Z,5.88
2023-05-19T06:23:43.959Z,5.50
2023-05-19T06:28:47.262Z,6.38
2023-05-19T06:33:49.560Z,6.27
2023-05-19T06:38:52.187Z,5.85
2023-05-19T06:43:55.224Z,6.53
2023-05-19T06:48:57.331Z,5.50
2023-05-19T06:54:01.302Z,6.28
2023-05-19T06:59:04.146Z,6.25
2023-05-19T07:04:10.372Z,6.40
2023-05-19T07:09:12.661Z,5.93
2023-05-19T07:14:15.400Z,5.93
2023-05-19T07:19:19.635Z,6.43
2023-05-19T07:24:22.172Z,6.57
2023-05-19T07:34:26.304Z,5.78
2023-05-19T07:39:29.843Z,6.88
2023-05-19T07:44:31.936Z,6.05
2023-05-19T07:49:33.855Z,5.60
2023-05-19T07:54:35.688Z,5.72
2023-05-19T07:59:37.530Z,5.50
2023-05-19T08:04:39.374Z,5.38
2023-05-19T08:09:41.398Z,6.07
2023-05-19T08:14:43.398Z,5.32
2023-05-19T08:19:45.347Z,5.50
2023-05-19T08:24:49.624Z,5.43
2023-05-19T08:29:51.393Z,5.20
2023-05-19T08:34:53.100Z,5.60
2023-05-19T08:39:54.933Z,4.97
2023-05-19T08:44:56.797Z,4.90
2023-05-19T08:50:07.512Z,5.15
2023-05-19T08:55:17.027Z,4.65
2023-05-19T09:00:19.914Z,5.13
2023-05-19T09:10:23.953Z,4.25
2023-05-19T09:15:27.979Z,4.40
2023-05-19T09:20:30.698Z,4.47
2023-05-19T09:25:32.699Z,4.50
2023-05-19T09:30:34.588Z,4.27
2023-05-19T09:35:37.098Z,3.97
2023-05-19T09:40:39.281Z,3.40
2023-05-19T09:45:41.015Z,3.90
2023-05-19T09:50:45.435Z,3.58
2023-05-19T09:55:48.569Z,3.72
2023-05-19T10:00:51.014Z,3.50
2023-05-19T10:05:53.534Z,3.92
2023-05-19T10:10:57.236Z,3.80
2023-05-19T10:16:00.774Z,3.35
2023-05-19T10:21:03.568Z,3.78
2023-05-19T10:26:06.851Z,3.92
2023-05-19T10:31:14.792Z,3.60
2023-05-19T10:36:39.344Z,3.63
2023-05-19T10:42:10.748Z,3.63
2023-05-19T10:47:12.762Z,3.55
2023-05-19T10:52:30.023Z,3.60
2023-05-19T10:57:32.937Z,3.95
2023-05-19T11:02:43.178Z,3.78
2023-05-19T11:07:56.377Z,3.35
2023-05-19T11:12:58.463Z,3.63
2023-05-19T11:18:01.683Z,3.73
2023-05-19T11:23:03.426Z,3.40
2023-05-19T11:28:05.850Z,3.30
2023-05-19T11:33:08.155Z,3.40
2023-05-19T11:38:11.155Z,3.50
2023-05-19T11:48:16.053Z,3.70
2023-05-19T11:58:26.396Z,3.53
2023-05-19T12:03:29.550Z,3.20
2023-05-19T12:08:31.842Z,3.30
2023-05-19T12:13:33.850Z,3.57
2023-05-19T12:18:40.475Z,3.45
2023-05-19T12:23:42.537Z,3.15
2023-05-19T12:28:45.720Z,3.37
2023-05-19T12:33:53.685Z,3.15
2023-05-19T12:38:55.801Z,2.90
2023-05-19T12:43:57.559Z,2.70
2023-05-19T12:49:01.056Z,2.80
2023-05-19T12:54:04.718Z,3.03
2023-05-19T12:59:07.399Z,2.90
2023-05-19T13:04:09.257Z,3.00
2023-05-19T13:09:11.593Z,2.90
2023-05-19T13:14:15.728Z,2.80
2023-05-19T13:24:24.769Z,2.70
2023-05-19T13:29:28.191Z,2.80
2023-05-19T13:34:29.943Z,2.70
2023-05-19T13:39:31.783Z,5.53
2023-05-19T13:44:33.616Z,3.03
2023-05-19T13:49:35.705Z,3.33
2023-05-19T13:54:37.467Z,3.20
2023-05-19T13:59:45.857Z,3.50
2023-05-19T14:04:59.505Z,3.00
2023-05-19T14:10:02.725Z,2.80
2023-05-19T14:15:06.311Z,2.63
2023-05-19T14:20:08.559Z,2.92
2023-05-19T14:25:10.601Z,2.55
2023-05-19T14:30:12.795Z,2.60
2023-05-19T14:35:16.478Z,2.60
2023-05-19T14:40:18.773Z,2.50
2023-05-19T14:45:21.156Z,2.92
2023-05-19T14:50:22.955Z,2.60
2023-05-19T14:55:25.074Z,2.47
2023-05-19T15:00:26.946Z,2.60
2023-05-19T15:05:28.624Z,2.90
2023-05-19T15:10:30.980Z,2.77
2023-05-19T15:15:32.738Z,2.53
2023-05-19T15:20:34.925Z,2.40
2023-05-19T15:25:37.802Z,3.03
2023-05-19T15:30:40.008Z,6.50
2023-05-19T15:35:41.932Z,2.90
2023-05-19T15:40:43.834Z,2.67
2023-05-19T15:45:46.066Z,2.97
2023-05-19T15:50:48.780Z,2.67
2023-05-19T15:55:50.974Z,2.63
2023-05-19T16:00:52.731Z,2.75
2023-05-19T16:05:55.032Z,2.70
2023-05-19T16:10:56.780Z,2.60
2023-05-19T16:15:58.652Z,2.70
2023-05-19T16:21:00.772Z,2.75
2023-05-19T16:26:02.549Z,2.78
2023-05-19T16:31:04.517Z,2.90
2023-05-19T16:36:06.489Z,2.57
2023-05-19T16:41:11.574Z,2.83
2023-05-19T16:46:13.488Z,2.30
2023-05-19T16:51:15.284Z,2.93
2023-05-19T16:56:17.122Z,2.47
2023-05-19T17:01:22.214Z,2.75
2023-05-19T17:06:23.897Z,2.80
2023-05-19T17:11:27.088Z,2.83
2023-05-19T17:16:28.890Z,2.72
2023-05-19T17:21:31.890Z,2.60
2023-05-19T17:26:34.916Z,3.05
2023-05-19T17:31:36.775Z,3.10
2023-05-19T17:36:38.504Z,2.37
2023-05-19T17:41:40.381Z,2.60
2023-05-19T17:46:42.116Z,2.58
2023-05-19T17:51:44.207Z,2.77
2023-05-19T17:56:46.403Z,2.93
2023-05-19T18:01:48.512Z,2.58
2023-05-19T18:06:52.080Z,2.50
2023-05-19T18:11:55.014Z,2.83
2023-05-19T18:16:56.853Z,2.67
2023-05-19T18:21:59.105Z,2.53
2023-05-19T18:27:00.835Z,2.88
2023-05-19T18:32:03.346Z,2.42
2023-05-19T18:37:05.380Z,2.63
2023-05-19T18:42:07.306Z,2.75
2023-05-19T18:47:09.083Z,2.80
2023-05-19T18:52:11.479Z,2.70
2023-05-19T18:57:14.646Z,2.70
2023-05-19T19:02:16.438Z,2.80
2023-05-19T19:07:18.550Z,2.97
2023-05-19T19:12:20.540Z,2.65
2023-05-19T19:17:22.717Z,3.20
2023-05-19T19:22:25.111Z,2.60
2023-05-19T19:27:30.902Z,2.87
2023-05-19T19:32:33.834Z,2.70
2023-05-19T19:37:35.731Z,2.80
2023-05-19T19:42:38.452Z,2.90
2023-05-19T19:47:40.395Z,3.13
2023-05-19T19:52:42.182Z,3.17
2023-05-19T19:57:45.927Z,3.47
2023-05-19T20:03:03.514Z,2.85
2023-05-19T20:08:06.630Z,3.38
2023-05-19T20:13:08.543Z,3.58
2023-05-19T20:18:11.226Z,3.10
2023-05-19T20:28:15.435Z,3.40
2023-05-19T20:33:17.295Z,3.40
2023-05-19T20:38:19.002Z,3.60
2023-05-19T20:43:21.236Z,3.00
2023-05-19T20:48:23.487Z,2.97
2023-05-19T20:53:25.685Z,3.10
2023-05-19T20:58:30.109Z,3.25
2023-05-19T21:03:32.279Z,3.45
2023-05-19T21:08:34.094Z,3.35
2023-05-19T21:13:39.076Z,3.10
2023-05-19T21:18:41.237Z,3.15
2023-05-19T21:23:43.093Z,3.07
2023-05-19T21:28:44.895Z,3.60
2023-05-19T21:33:46.733Z,3.53
2023-05-19T21:38:48.844Z,3.37
2023-05-19T21:43:50.766Z,3.53
2023-05-19T21:48:52.518Z,3.10
2023-05-19T21:53:54.250Z,3.47
2023-05-19T21:58:56.087Z,3.47
2023-05-19T22:03:58.167Z,3.33
2023-05-19T22:09:02.216Z,3.20
2023-05-19T22:14:04.012Z,3.17
2023-05-19T22:19:05.733Z,3.22
2023-05-19T22:24:08.045Z,3.13
2023-05-19T22:29:14.995Z,3.30
2023-05-19T22:34:17.356Z,3.30
2023-05-19T22:39:19.070Z,3.55
2023-05-19T22:44:20.824Z,3.33
2023-05-19T22:49:26.497Z,3.50
2023-05-19T22:54:28.303Z,3.33
2023-05-19T22:59:30.536Z,3.90
2023-05-19T23:04:33.457Z,3.60
2023-05-19T23:14:36.991Z,3.08
2023-05-19T23:19:38.779Z,3.30
2023-05-19T23:24:40.560Z,3.70
2023-05-19T23:29:42.247Z,3.72
2023-05-19T23:34:44.082Z,2.97
2023-05-19T23:39:45.948Z,3.25
2023-05-19T23:44:47.753Z,3.80
2023-05-19T23:49:49.556Z,4.05
2023-05-19T23:54:51.435Z,3.67
2023-05-19T23:59:53.108Z,4.00
